KDSM

Des Moines International Airport

Des Moines, Iowa, USA
METAR KDSM 222054Z 32005KT 10SM FEW250 20/M02 A3012 RMK AO2 SLP199 T02001017 55009
Observed Flight Rules
Oct-22 @ 20:54 UTC (24 minutes ago) Visual Flight Rules
Wind Visibility Clouds
320° at 5 knots 10 miles
  • Few at 25,000' AGL
Temperatures Readings
Current 20°C / 68°F
Dewpoint -2°C / 28°F
Humidity 23%
Altimeter 30.12" Hg
Pressure 1019.9 hPa
Elevation 295
METAR KDSM 222054Z 32005KT 10SM FEW250 20/M02 A3012 RMK AO2 SLP199 T02001017 55009
Observed Flight Rules
Oct-22 @ 20:54 UTC
(24 minutes ago)
VFR
Wind Visibility
320° at 5 knots 10 miles
Clouds
  • Few at 25,000' AGL
Temperature Dewpoint
20°C / 68°F -2°C / 28°F
Humidity Altimeter Pressure
23% 30.12" Hg 1019.9 hPa